PWSweather.com
Personal Weather Stations
Station Observations
DW6359
Southwest Cambria, Cambria, WI 53923

Southwest CambriaCambria, WI 53923

Lat: 43.541194, Lon: -89.11275

Elevation: 945

Station Type: Davis Vantage Pro2

http://home.centurytel.net/weathercambria/wxcambria.html

High Low Average
Temperature 15.2°F-9.3°C -4.8°F-20.4°C 8.5°F-13.1°C
Dew Point 12.0°F-11.1°C -11.4°F-24.1°C 2.7°F-16.3°C
Winds 13.0 mph 20.9 kmh Calm Calm 6.0 mph WSW9.7 kmh WSW
Wind Gusts 18.0 mph29.0 kmh -- 2.0 mph3.2 kmh
Humidity 87% 61% 77%
Pressure 30.35 in1027.8 mb 29.91 in1012.9 mb -
Precipitation 0.00 in0.0 mm - -
Hour Temp Dew Point Humidity Winds Wind Gusts Pressure Precip Precip Rate Daily Precip Total
12:00 AM 16.6°F-8.6°C 13.7°F-10.2°C 88% 5.0 mph N8.0 kmh N -- 29.89 in1012.2 mb 0.00 in0.0 mm 0.00 in0.0 mm 0.00 in0.0 mm
12:05 AM 16.6°F-8.6°C 13.7°F-10.2°C 88% 3.0 mph NNE4.8 kmh NNE -- 29.89 in1012.2 mb 0.00 in0.0 mm 0.00 in0.0 mm 0.00 in0.0 mm
12:10 AM 16.5°F-8.6°C 13.6°F-10.2°C 88% 4.0 mph NNE6.4 kmh NNE -- 29.89 in1012.2 mb 0.00 in0.0 mm 0.00 in0.0 mm 0.00 in0.0 mm
12:15 AM 16.3°F-8.7°C 13.4°F-10.3°C 88% Calm Calm -- 29.89 in1012.2 mb 0.00 in0.0 mm 0.00 in0.0 mm 0.00 in0.0 mm
12:20 AM 16.1°F-8.8°C 13.2°F-10.4°C 88% 5.0 mph N8.0 kmh N 11.0 mph17.7 kmh 29.89 in1012.2 mb 0.00 in0.0 mm 0.00 in0.0 mm 0.00 in0.0 mm
12:25 AM 16.1°F-8.8°C 13.2°F-10.4°C 88% 6.0 mph NNE9.7 kmh NNE 11.0 mph17.7 kmh 29.90 in1012.5 mb 0.00 in0.0 mm 0.00 in0.0 mm 0.00 in0.0 mm
12:30 AM 15.9°F-8.9°C 13.0°F-10.6°C 88% 5.0 mph NNW8.0 kmh NNW -- 29.90 in1012.5 mb 0.00 in0.0 mm 0.00 in0.0 mm 0.00 in0.0 mm
12:35 AM 15.8°F-9.0°C 12.6°F-10.8°C 87% 7.0 mph N11.3 kmh N -- 29.90 in1012.5 mb 0.00 in0.0 mm 0.00 in0.0 mm 0.00 in0.0 mm
12:40 AM 15.7°F-9.1°C 12.5°F-10.8°C 87% 8.0 mph ENE12.9 kmh ENE -- 29.90 in1012.5 mb 0.00 in0.0 mm 0.00 in0.0 mm 0.00 in0.0 mm
12:45 AM 15.5°F-9.2°C 12.3°F-10.9°C 87% 6.0 mph N9.7 kmh N -- 29.90 in1012.5 mb 0.00 in0.0 mm 0.00 in0.0 mm 0.00 in0.0 mm
12:50 AM 15.3°F-9.3°C 12.1°F-11.1°C 87% 4.0 mph N6.4 kmh N -- 29.91 in1012.9 mb 0.00 in0.0 mm 0.00 in0.0 mm 0.00 in0.0 mm
12:55 AM 15.3°F-9.3°C 12.1°F-11.1°C 87% 4.0 mph NNE6.4 kmh NNE -- 29.91 in1012.9 mb 0.00 in0.0 mm 0.00 in0.0 mm 0.00 in0.0 mm
01:00 AM 15.2°F-9.3°C 12.0°F-11.1°C 87% 3.0 mph N4.8 kmh N -- 29.91 in1012.9 mb 0.00 in0.0 mm 0.00 in0.0 mm 0.00 in0.0 mm
01:05 AM 15.1°F-9.4°C 11.9°F-11.2°C 87% 6.0 mph NNE9.7 kmh NNE -- 29.91 in1012.9 mb 0.00 in0.0 mm 0.00 in0.0 mm 0.00 in0.0 mm
01:10 AM 15.0°F-9.4°C 11.8°F-11.2°C 87% 4.0 mph NNE6.4 kmh NNE 11.0 mph17.7 kmh 29.92 in1013.2 mb 0.00 in0.0 mm 0.00 in0.0 mm 0.00 in0.0 mm
01:15 AM 15.0°F-9.4°C 11.8°F-11.2°C 87% 1.0 mph N1.6 kmh N 11.0 mph17.7 kmh 29.92 in1013.2 mb 0.00 in0.0 mm 0.00 in0.0 mm 0.00 in0.0 mm
01:20 AM 14.9°F-9.5°C 11.7°F-11.3°C 87% 6.0 mph NNE9.7 kmh NNE -- 29.92 in1013.2 mb 0.00 in0.0 mm 0.00 in0.0 mm 0.00 in0.0 mm
01:25 AM 14.8°F-9.6°C 11.6°F-11.3°C 87% 5.0 mph NE8.0 kmh NE -- 29.92 in1013.2 mb 0.00 in0.0 mm 0.00 in0.0 mm 0.00 in0.0 mm
01:30 AM 14.7°F-9.6°C 11.5°F-11.4°C 87% 5.0 mph NNE8.0 kmh NNE -- 29.92 in1013.2 mb 0.00 in0.0 mm 0.00 in0.0 mm 0.00 in0.0 mm
01:35 AM 14.7°F-9.6°C 11.5°F-11.4°C 87% 4.0 mph N6.4 kmh N -- 29.93 in1013.5 mb 0.00 in0.0 mm 0.00 in0.0 mm 0.00 in0.0 mm
01:40 AM 14.7°F-9.6°C 11.5°F-11.4°C 87% 7.0 mph N11.3 kmh N -- 29.92 in1013.2 mb 0.00 in0.0 mm 0.00 in0.0 mm 0.00 in0.0 mm
01:45 AM 14.7°F-9.6°C 11.5°F-11.4°C 87% 5.0 mph N8.0 kmh N -- 29.93 in1013.5 mb 0.00 in0.0 mm 0.00 in0.0 mm 0.00 in0.0 mm
01:50 AM 14.5°F-9.7°C 11.4°F-11.4°C 87% 2.0 mph NE3.2 kmh NE -- 29.93 in1013.5 mb 0.00 in0.0 mm 0.00 in0.0 mm 0.00 in0.0 mm
01:55 AM 14.4°F-9.8°C 11.3°F-11.5°C 87% 3.0 mph N4.8 kmh N -- 29.93 in1013.5 mb 0.00 in0.0 mm 0.00 in0.0 mm 0.00 in0.0 mm
02:00 AM 14.4°F-9.8°C 11.3°F-11.5°C 87% 6.0 mph NE9.7 kmh NE 8.0 mph12.9 kmh 29.93 in1013.5 mb 0.00 in0.0 mm 0.00 in0.0 mm 0.00 in0.0 mm
02:05 AM 14.3°F-9.8°C 11.2°F-11.6°C 87% 3.0 mph NNE4.8 kmh NNE 8.0 mph12.9 kmh 29.94 in1013.9 mb 0.00 in0.0 mm 0.00 in0.0 mm 0.00 in0.0 mm
02:10 AM 14.3°F-9.8°C 10.9°F-11.7°C 86% 3.0 mph NNE4.8 kmh NNE -- 29.94 in1013.9 mb 0.00 in0.0 mm 0.00 in0.0 mm 0.00 in0.0 mm
02:15 AM 14.2°F-9.9°C 10.8°F-11.8°C 86% 1.0 mph N1.6 kmh N -- 29.94 in1013.9 mb 0.00 in0.0 mm 0.00 in0.0 mm 0.00 in0.0 mm
02:20 AM 14.1°F-9.9°C 10.7°F-11.8°C 86% 4.0 mph N6.4 kmh N -- 29.94 in1013.9 mb 0.00 in0.0 mm 0.00 in0.0 mm 0.00 in0.0 mm
02:25 AM 14.1°F-9.9°C 10.7°F-11.8°C 86% 3.0 mph N4.8 kmh N -- 29.95 in1014.2 mb 0.00 in0.0 mm 0.00 in0.0 mm 0.00 in0.0 mm
02:30 AM 14.0°F-10.0°C 10.6°F-11.9°C 86% 4.0 mph N6.4 kmh N -- 29.95 in1014.2 mb 0.00 in0.0 mm 0.00 in0.0 mm 0.00 in0.0 mm
02:35 AM 14.0°F-10.0°C 10.6°F-11.9°C 86% 4.0 mph N6.4 kmh N -- 29.95 in1014.2 mb 0.00 in0.0 mm 0.00 in0.0 mm 0.00 in0.0 mm
02:40 AM 13.9°F-10.1°C 10.5°F-11.9°C 86% 3.0 mph N4.8 kmh N -- 29.95 in1014.2 mb 0.00 in0.0 mm 0.00 in0.0 mm 0.00 in0.0 mm
02:45 AM 13.9°F-10.1°C 10.5°F-11.9°C 86% 4.0 mph N6.4 kmh N -- 29.95 in1014.2 mb 0.00 in0.0 mm 0.00 in0.0 mm 0.00 in0.0 mm
02:50 AM 13.9°F-10.1°C 10.5°F-11.9°C 86% 5.0 mph NNW8.0 kmh NNW 11.0 mph17.7 kmh 29.95 in1014.2 mb 0.00 in0.0 mm 0.00 in0.0 mm 0.00 in0.0 mm
02:55 AM 13.8°F-10.1°C 10.4°F-12.0°C 86% 4.0 mph N6.4 kmh N 11.0 mph17.7 kmh 29.96 in1014.6 mb 0.00 in0.0 mm 0.00 in0.0 mm 0.00 in0.0 mm
03:00 AM 13.8°F-10.1°C 10.4°F-12.0°C 86% 5.0 mph N8.0 kmh N -- 29.96 in1014.6 mb 0.00 in0.0 mm 0.00 in0.0 mm 0.00 in0.0 mm
03:05 AM 13.7°F-10.2°C 10.3°F-12.1°C 86% 6.0 mph NNE9.7 kmh NNE -- 29.96 in1014.6 mb 0.00 in0.0 mm 0.00 in0.0 mm 0.00 in0.0 mm
03:10 AM 13.7°F-10.2°C 10.3°F-12.1°C 86% 3.0 mph N4.8 kmh N -- 29.96 in1014.6 mb 0.00 in0.0 mm 0.00 in0.0 mm 0.00 in0.0 mm
03:15 AM 13.7°F-10.2°C 10.3°F-12.1°C 86% 6.0 mph N9.7 kmh N -- 29.96 in1014.6 mb 0.00 in0.0 mm 0.00 in0.0 mm 0.00 in0.0 mm
03:20 AM 13.6°F-10.2°C 10.2°F-12.1°C 86% 7.0 mph NNW11.3 kmh NNW -- 29.97 in1014.9 mb 0.00 in0.0 mm 0.00 in0.0 mm 0.00 in0.0 mm
03:25 AM 13.7°F-10.2°C 10.3°F-12.1°C 86% 3.0 mph NNE4.8 kmh NNE -- 29.97 in1014.9 mb 0.00 in0.0 mm 0.00 in0.0 mm 0.00 in0.0 mm
03:30 AM 13.6°F-10.2°C 10.2°F-12.1°C 86% 3.0 mph N4.8 kmh N -- 29.97 in1014.9 mb 0.00 in0.0 mm 0.00 in0.0 mm 0.00 in0.0 mm
03:35 AM 13.6°F-10.2°C 10.2°F-12.1°C 86% 4.0 mph N6.4 kmh N -- 29.97 in1014.9 mb 0.00 in0.0 mm 0.00 in0.0 mm 0.00 in0.0 mm
03:40 AM 13.6°F-10.2°C 10.2°F-12.1°C 86% 9.0 mph N14.5 kmh N 10.0 mph16.1 kmh 29.97 in1014.9 mb 0.00 in0.0 mm 0.00 in0.0 mm 0.00 in0.0 mm
03:45 AM 13.6°F-10.2°C 10.2°F-12.1°C 86% 4.0 mph NNE6.4 kmh NNE 10.0 mph16.1 kmh 29.97 in1014.9 mb 0.00 in0.0 mm 0.00 in0.0 mm 0.00 in0.0 mm
03:50 AM 13.6°F-10.2°C 10.2°F-12.1°C 86% 4.0 mph NNW6.4 kmh NNW -- 29.98 in1015.2 mb 0.00 in0.0 mm 0.00 in0.0 mm 0.00 in0.0 mm
03:55 AM 13.6°F-10.2°C 10.2°F-12.1°C 86% 11.0 mph N17.7 kmh N -- 29.98 in1015.2 mb 0.00 in0.0 mm 0.00 in0.0 mm 0.00 in0.0 mm
04:00 AM 13.5°F-10.3°C 10.1°F-12.2°C 86% 4.0 mph NNE6.4 kmh NNE -- 29.98 in1015.2 mb 0.00 in0.0 mm 0.00 in0.0 mm 0.00 in0.0 mm
04:05 AM 13.4°F-10.3°C 10.0°F-12.2°C 86% 7.0 mph N11.3 kmh N -- 29.98 in1015.2 mb 0.00 in0.0 mm 0.00 in0.0 mm 0.00 in0.0 mm
04:10 AM 13.4°F-10.3°C 10.0°F-12.2°C 86% 5.0 mph NNW8.0 kmh NNW -- 29.98 in1015.2 mb 0.00 in0.0 mm 0.00 in0.0 mm 0.00 in0.0 mm
04:15 AM 13.3°F-10.4°C 9.9°F-12.3°C 86% 4.0 mph NNW6.4 kmh NNW -- 29.98 in1015.2 mb 0.00 in0.0 mm 0.00 in0.0 mm 0.00 in0.0 mm
04:20 AM 13.3°F-10.4°C 9.9°F-12.3°C 86% 8.0 mph NE12.9 kmh NE -- 29.98 in1015.2 mb 0.00 in0.0 mm 0.00 in0.0 mm 0.00 in0.0 mm
04:25 AM 13.2°F-10.4°C 9.8°F-12.3°C 86% 5.0 mph NNE8.0 kmh NNE -- 29.98 in1015.2 mb 0.00 in0.0 mm 0.00 in0.0 mm 0.00 in0.0 mm
04:30 AM 13.2°F-10.4°C 9.8°F-12.3°C 86% 4.0 mph NE6.4 kmh NE 11.0 mph17.7 kmh 29.99 in1015.6 mb 0.00 in0.0 mm 0.00 in0.0 mm 0.00 in0.0 mm
04:35 AM 13.2°F-10.4°C 10.1°F-12.2°C 87% 6.0 mph NNW9.7 kmh NNW 11.0 mph17.7 kmh 29.99 in1015.6 mb 0.00 in0.0 mm 0.00 in0.0 mm 0.00 in0.0 mm
04:40 AM 13.1°F-10.5°C 10.0°F-12.2°C 87% 4.0 mph N6.4 kmh N -- 29.99 in1015.6 mb 0.00 in0.0 mm 0.00 in0.0 mm 0.00 in0.0 mm
04:45 AM 13.1°F-10.5°C 9.7°F-12.4°C 86% 7.0 mph N11.3 kmh N -- 29.99 in1015.6 mb 0.00 in0.0 mm 0.00 in0.0 mm 0.00 in0.0 mm
04:50 AM 13.1°F-10.5°C 9.7°F-12.4°C 86% 6.0 mph NNE9.7 kmh NNE -- 29.99 in1015.6 mb 0.00 in0.0 mm 0.00 in0.0 mm 0.00 in0.0 mm
04:55 AM 13.0°F-10.6°C 9.6°F-12.4°C 86% 3.0 mph NNW4.8 kmh NNW -- 29.99 in1015.6 mb 0.00 in0.0 mm 0.00 in0.0 mm 0.00 in0.0 mm
05:00 AM 13.0°F-10.6°C 9.6°F-12.4°C 86% 4.0 mph NE6.4 kmh NE -- 29.99 in1015.6 mb 0.00 in0.0 mm 0.00 in0.0 mm 0.00 in0.0 mm
05:05 AM 12.9°F-10.6°C 9.5°F-12.5°C 86% 2.0 mph N3.2 kmh N -- 30.00 in1015.9 mb 0.00 in0.0 mm 0.00 in0.0 mm 0.00 in0.0 mm
05:10 AM 12.9°F-10.6°C 9.5°F-12.5°C 86% 5.0 mph NNW8.0 kmh NNW -- 30.00 in1015.9 mb 0.00 in0.0 mm 0.00 in0.0 mm 0.00 in0.0 mm
05:15 AM 12.8°F-10.7°C 9.4°F-12.6°C 86% 7.0 mph N11.3 kmh N -- 30.01 in1016.3 mb 0.00 in0.0 mm 0.00 in0.0 mm 0.00 in0.0 mm
05:20 AM 12.8°F-10.7°C 9.7°F-12.4°C 87% 6.0 mph NNW9.7 kmh NNW 11.0 mph17.7 kmh 30.01 in1016.3 mb 0.00 in0.0 mm 0.00 in0.0 mm 0.00 in0.0 mm
05:25 AM 12.7°F-10.7°C 9.6°F-12.4°C 87% 6.0 mph N9.7 kmh N 11.0 mph17.7 kmh 30.02 in1016.6 mb 0.00 in0.0 mm 0.00 in0.0 mm 0.00 in0.0 mm
05:30 AM 12.7°F-10.7°C 9.6°F-12.4°C 87% 2.0 mph NNE3.2 kmh NNE -- 30.02 in1016.6 mb 0.00 in0.0 mm 0.00 in0.0 mm 0.00 in0.0 mm
05:35 AM 12.6°F-10.8°C 9.5°F-12.5°C 87% 9.0 mph NNW14.5 kmh NNW -- 30.02 in1016.6 mb 0.00 in0.0 mm 0.00 in0.0 mm 0.00 in0.0 mm
05:40 AM 12.6°F-10.8°C 9.5°F-12.5°C 87% 2.0 mph NE3.2 kmh NE -- 30.03 in1016.9 mb 0.00 in0.0 mm 0.00 in0.0 mm 0.00 in0.0 mm
05:45 AM 12.6°F-10.8°C 9.2°F-12.7°C 86% 5.0 mph NNE8.0 kmh NNE -- 30.03 in1016.9 mb 0.00 in0.0 mm 0.00 in0.0 mm 0.00 in0.0 mm
05:50 AM 12.5°F-10.8°C 9.1°F-12.7°C 86% 5.0 mph N8.0 kmh N -- 30.03 in1016.9 mb 0.00 in0.0 mm 0.00 in0.0 mm 0.00 in0.0 mm
05:55 AM 12.5°F-10.8°C 9.1°F-12.7°C 86% 6.0 mph NNE9.7 kmh NNE -- 30.03 in1016.9 mb 0.00 in0.0 mm 0.00 in0.0 mm 0.00 in0.0 mm
06:00 AM 12.5°F-10.8°C 9.1°F-12.7°C 86% 7.0 mph N11.3 kmh N -- 30.04 in1017.3 mb 0.00 in0.0 mm 0.00 in0.0 mm 0.00 in0.0 mm
06:05 AM 12.5°F-10.8°C 9.1°F-12.7°C 86% 7.0 mph N11.3 kmh N -- 30.05 in1017.6 mb 0.00 in0.0 mm 0.00 in0.0 mm 0.00 in0.0 mm
06:10 AM 12.5°F-10.8°C 9.1°F-12.7°C 86% 5.0 mph N8.0 kmh N 13.0 mph20.9 kmh 30.05 in1017.6 mb 0.00 in0.0 mm 0.00 in0.0 mm 0.00 in0.0 mm
06:15 AM 12.5°F-10.8°C 9.1°F-12.7°C 86% 5.0 mph NW8.0 kmh NW 13.0 mph20.9 kmh 30.05 in1017.6 mb 0.00 in0.0 mm 0.00 in0.0 mm 0.00 in0.0 mm
06:20 AM 12.4°F-10.9°C 9.0°F-12.8°C 86% 3.0 mph N4.8 kmh N -- 30.06 in1017.9 mb 0.00 in0.0 mm 0.00 in0.0 mm 0.00 in0.0 mm
06:25 AM 12.4°F-10.9°C 9.0°F-12.8°C 86% 4.0 mph NW6.4 kmh NW -- 30.06 in1017.9 mb 0.00 in0.0 mm 0.00 in0.0 mm 0.00 in0.0 mm
06:30 AM 12.3°F-10.9°C 8.9°F-12.8°C 86% 7.0 mph NNW11.3 kmh NNW -- 30.07 in1018.3 mb 0.00 in0.0 mm 0.00 in0.0 mm 0.00 in0.0 mm
06:35 AM 12.2°F-11.0°C 9.1°F-12.7°C 87% 6.0 mph N9.7 kmh N -- 30.07 in1018.3 mb 0.00 in0.0 mm 0.00 in0.0 mm 0.00 in0.0 mm
06:40 AM 12.2°F-11.0°C 9.1°F-12.7°C 87% 6.0 mph NNW9.7 kmh NNW -- 30.08 in1018.6 mb 0.00 in0.0 mm 0.00 in0.0 mm 0.00 in0.0 mm
06:45 AM 12.0°F-11.1°C 8.9°F-12.8°C 87% 6.0 mph NNE9.7 kmh NNE -- 30.08 in1018.6 mb 0.00 in0.0 mm 0.00 in0.0 mm 0.00 in0.0 mm
06:50 AM 11.9°F-11.2°C 8.8°F-12.9°C 87% 10.0 mph N16.1 kmh N -- 30.08 in1018.6 mb 0.00 in0.0 mm 0.00 in0.0 mm 0.00 in0.0 mm
06:55 AM 11.9°F-11.2°C 8.8°F-12.9°C 87% 5.0 mph N8.0 kmh N -- 30.09 in1019.0 mb 0.00 in0.0 mm 0.00 in0.0 mm 0.00 in0.0 mm
07:00 AM 11.9°F-11.2°C 8.8°F-12.9°C 87% 5.0 mph N8.0 kmh N 12.0 mph19.3 kmh 30.09 in1019.0 mb 0.00 in0.0 mm 0.00 in0.0 mm 0.00 in0.0 mm
07:05 AM 11.9°F-11.2°C 8.8°F-12.9°C 87% 4.0 mph N6.4 kmh N 12.0 mph19.3 kmh 30.09 in1019.0 mb 0.00 in0.0 mm 0.00 in0.0 mm 0.00 in0.0 mm
07:10 AM 11.9°F-11.2°C 8.8°F-12.9°C 87% 5.0 mph NNW8.0 kmh NNW -- 30.09 in1019.0 mb 0.00 in0.0 mm 0.00 in0.0 mm 0.00 in0.0 mm
07:15 AM 11.8°F-11.2°C 8.7°F-12.9°C 87% 6.0 mph NE9.7 kmh NE -- 30.09 in1019.0 mb 0.00 in0.0 mm 0.00 in0.0 mm 0.00 in0.0 mm
07:20 AM 11.7°F-11.3°C 8.3°F-13.2°C 86% 5.0 mph N8.0 kmh N -- 30.09 in1019.0 mb 0.00 in0.0 mm 0.00 in0.0 mm 0.00 in0.0 mm
07:25 AM 11.5°F-11.4°C 8.1°F-13.3°C 86% 5.0 mph NNW8.0 kmh NNW -- 30.10 in1019.3 mb 0.00 in0.0 mm 0.00 in0.0 mm 0.00 in0.0 mm
07:30 AM 11.4°F-11.4°C 8.0°F-13.3°C 86% 4.0 mph N6.4 kmh N -- 30.10 in1019.3 mb 0.00 in0.0 mm 0.00 in0.0 mm 0.00 in0.0 mm
07:35 AM 11.3°F-11.5°C 7.9°F-13.4°C 86% 8.0 mph NE12.9 kmh NE -- 30.09 in1019.0 mb 0.00 in0.0 mm 0.00 in0.0 mm 0.00 in0.0 mm
07:40 AM 11.3°F-11.5°C 7.9°F-13.4°C 86% 7.0 mph N11.3 kmh N -- 30.10 in1019.3 mb 0.00 in0.0 mm 0.00 in0.0 mm 0.00 in0.0 mm
07:45 AM 11.3°F-11.5°C 7.9°F-13.4°C 86% 4.0 mph N6.4 kmh N -- 30.10 in1019.3 mb 0.00 in0.0 mm 0.00 in0.0 mm 0.00 in0.0 mm
07:50 AM 11.3°F-11.5°C 7.9°F-13.4°C 86% 4.0 mph N6.4 kmh N 10.0 mph16.1 kmh 30.10 in1019.3 mb 0.00 in0.0 mm 0.00 in0.0 mm 0.00 in0.0 mm
07:55 AM 11.3°F-11.5°C 7.9°F-13.4°C 86% 4.0 mph NNW6.4 kmh NNW 10.0 mph16.1 kmh 30.11 in1019.6 mb 0.00 in0.0 mm 0.00 in0.0 mm 0.00 in0.0 mm
08:00 AM 11.3°F-11.5°C 7.9°F-13.4°C 86% 10.0 mph N16.1 kmh N -- 30.11 in1019.6 mb 0.00 in0.0 mm 0.00 in0.0 mm 0.00 in0.0 mm
08:05 AM 11.3°F-11.5°C 7.9°F-13.4°C 86% 6.0 mph NW9.7 kmh NW -- 30.11 in1019.6 mb 0.00 in0.0 mm 0.00 in0.0 mm 0.00 in0.0 mm
08:10 AM 11.3°F-11.5°C 7.9°F-13.4°C 86% 4.0 mph NW6.4 kmh NW -- 30.11 in1019.6 mb 0.00 in0.0 mm 0.00 in0.0 mm 0.00 in0.0 mm
08:15 AM 11.2°F-11.6°C 7.8°F-13.4°C 86% 3.0 mph N4.8 kmh N -- 30.12 in1020.0 mb 0.00 in0.0 mm 0.00 in0.0 mm 0.00 in0.0 mm
08:20 AM 11.0°F-11.7°C 7.6°F-13.6°C 86% 7.0 mph NNW11.3 kmh NNW -- 30.13 in1020.3 mb 0.00 in0.0 mm 0.00 in0.0 mm 0.00 in0.0 mm
08:25 AM 10.8°F-11.8°C 7.2°F-13.8°C 85% 7.0 mph N11.3 kmh N -- 30.13 in1020.3 mb 0.00 in0.0 mm 0.00 in0.0 mm 0.00 in0.0 mm
08:30 AM 10.8°F-11.8°C 7.2°F-13.8°C 85% 9.0 mph NNW14.5 kmh NNW -- 30.12 in1020.0 mb 0.00 in0.0 mm 0.00 in0.0 mm 0.00 in0.0 mm
08:35 AM 10.7°F-11.8°C 6.8°F-14.0°C 84% 9.0 mph N14.5 kmh N -- 30.14 in1020.7 mb 0.00 in0.0 mm 0.00 in0.0 mm 0.00 in0.0 mm
08:40 AM 10.7°F-11.8°C 6.8°F-14.0°C 84% 7.0 mph N11.3 kmh N 14.0 mph22.5 kmh 30.14 in1020.7 mb 0.00 in0.0 mm 0.00 in0.0 mm 0.00 in0.0 mm
08:45 AM 10.6°F-11.9°C 6.5°F-14.2°C 83% 10.0 mph NNW16.1 kmh NNW 14.0 mph22.5 kmh 30.15 in1021.0 mb 0.00 in0.0 mm 0.00 in0.0 mm 0.00 in0.0 mm
08:50 AM 10.7°F-11.8°C 6.8°F-14.0°C 84% 9.0 mph NW14.5 kmh NW -- 30.16 in1021.3 mb 0.00 in0.0 mm 0.00 in0.0 mm 0.00 in0.0 mm
08:55 AM 10.7°F-11.8°C 6.6°F-14.1°C 83% 7.0 mph NW11.3 kmh NW -- 30.17 in1021.7 mb 0.00 in0.0 mm 0.00 in0.0 mm 0.00 in0.0 mm
09:00 AM 10.6°F-11.9°C 6.7°F-14.1°C 84% 7.0 mph NNW11.3 kmh NNW -- 30.16 in1021.3 mb 0.00 in0.0 mm 0.00 in0.0 mm 0.00 in0.0 mm
09:05 AM 10.5°F-11.9°C 6.6°F-14.1°C 84% 7.0 mph N11.3 kmh N -- 30.16 in1021.3 mb 0.00 in0.0 mm 0.00 in0.0 mm 0.00 in0.0 mm
09:10 AM 10.4°F-12.0°C 6.5°F-14.2°C 84% 6.0 mph N9.7 kmh N -- 30.16 in1021.3 mb 0.00 in0.0 mm 0.00 in0.0 mm 0.00 in0.0 mm
09:15 AM 10.4°F-12.0°C 6.5°F-14.2°C 84% 4.0 mph NNW6.4 kmh NNW -- 30.15 in1021.0 mb 0.00 in0.0 mm 0.00 in0.0 mm 0.00 in0.0 mm
09:20 AM 10.3°F-12.1°C 6.4°F-14.2°C 84% 7.0 mph NNW11.3 kmh NNW -- 30.15 in1021.0 mb 0.00 in0.0 mm 0.00 in0.0 mm 0.00 in0.0 mm
09:25 AM 10.4°F-12.0°C 6.5°F-14.2°C 84% 7.0 mph N11.3 kmh N -- 30.15 in1021.0 mb 0.00 in0.0 mm 0.00 in0.0 mm 0.00 in0.0 mm
09:30 AM 10.4°F-12.0°C 6.5°F-14.2°C 84% 7.0 mph NNW11.3 kmh NNW 8.0 mph12.9 kmh 30.16 in1021.3 mb 0.00 in0.0 mm 0.00 in0.0 mm 0.00 in0.0 mm
09:35 AM 10.4°F-12.0°C 6.5°F-14.2°C 84% 4.0 mph NNW6.4 kmh NNW 8.0 mph12.9 kmh 30.17 in1021.7 mb 0.00 in0.0 mm 0.00 in0.0 mm 0.00 in0.0 mm
09:40 AM 10.4°F-12.0°C 6.5°F-14.2°C 84% 10.0 mph NW16.1 kmh NW -- 30.18 in1022.0 mb 0.00 in0.0 mm 0.00 in0.0 mm 0.00 in0.0 mm
09:45 AM 10.4°F-12.0°C 6.5°F-14.2°C 84% 6.0 mph NNW9.7 kmh NNW -- 30.19 in1022.4 mb 0.00 in0.0 mm 0.00 in0.0 mm 0.00 in0.0 mm
09:50 AM 10.3°F-12.1°C 6.2°F-14.3°C 83% 8.0 mph N12.9 kmh N -- 30.19 in1022.4 mb 0.00 in0.0 mm 0.00 in0.0 mm 0.00 in0.0 mm
09:55 AM 10.3°F-12.1°C 6.2°F-14.3°C 83% 11.0 mph NW17.7 kmh NW -- 30.18 in1022.0 mb 0.00 in0.0 mm 0.00 in0.0 mm 0.00 in0.0 mm
10:00 AM 10.3°F-12.1°C 6.2°F-14.3°C 83% 6.0 mph NNW9.7 kmh NNW -- 30.18 in1022.0 mb 0.00 in0.0 mm 0.00 in0.0 mm 0.00 in0.0 mm
10:05 AM 10.3°F-12.1°C 6.2°F-14.3°C 83% 6.0 mph NW9.7 kmh NW -- 30.18 in1022.0 mb 0.00 in0.0 mm 0.00 in0.0 mm 0.00 in0.0 mm
10:10 AM 10.1°F-12.2°C 6.0°F-14.4°C 83% 6.0 mph N9.7 kmh N -- 30.18 in1022.0 mb 0.00 in0.0 mm 0.00 in0.0 mm 0.00 in0.0 mm
10:15 AM 10.1°F-12.2°C 6.0°F-14.4°C 83% 10.0 mph NW16.1 kmh NW -- 30.18 in1022.0 mb 0.00 in0.0 mm 0.00 in0.0 mm 0.00 in0.0 mm
10:20 AM 10.0°F-12.2°C 5.9°F-14.5°C 83% 8.0 mph NW12.9 kmh NW 14.0 mph22.5 kmh 30.18 in1022.0 mb 0.00 in0.0 mm 0.00 in0.0 mm 0.00 in0.0 mm
10:25 AM 9.8°F-12.3°C 5.7°F-14.6°C 83% 6.0 mph NW9.7 kmh NW 14.0 mph22.5 kmh 30.19 in1022.4 mb 0.00 in0.0 mm 0.00 in0.0 mm 0.00 in0.0 mm
10:30 AM 9.6°F-12.4°C 5.5°F-14.7°C 83% 6.0 mph NNW9.7 kmh NNW -- 30.19 in1022.4 mb 0.00 in0.0 mm 0.00 in0.0 mm 0.00 in0.0 mm
10:35 AM 9.5°F-12.5°C 5.4°F-14.8°C 83% 11.0 mph NNW17.7 kmh NNW -- 30.20 in1022.7 mb 0.00 in0.0 mm 0.00 in0.0 mm 0.00 in0.0 mm
10:40 AM 9.4°F-12.6°C 5.6°F-14.7°C 84% 8.0 mph NW12.9 kmh NW -- 30.20 in1022.7 mb 0.00 in0.0 mm 0.00 in0.0 mm 0.00 in0.0 mm
10:45 AM 9.4°F-12.6°C 5.6°F-14.7°C 84% 11.0 mph NW17.7 kmh NW -- 30.21 in1023.0 mb 0.00 in0.0 mm 0.00 in0.0 mm 0.00 in0.0 mm
10:50 AM 9.2°F-12.7°C 5.1°F-14.9°C 83% 10.0 mph NNW16.1 kmh NNW -- 30.21 in1023.0 mb 0.00 in0.0 mm 0.00 in0.0 mm 0.00 in0.0 mm
10:55 AM 9.1°F-12.7°C 5.3°F-14.8°C 84% 5.0 mph NNW8.0 kmh NNW -- 30.21 in1023.0 mb 0.00 in0.0 mm 0.00 in0.0 mm 0.00 in0.0 mm
11:00 AM 9.1°F-12.7°C 5.3°F-14.8°C 84% 8.0 mph NW12.9 kmh NW -- 30.21 in1023.0 mb 0.00 in0.0 mm 0.00 in0.0 mm 0.00 in0.0 mm
11:05 AM 9.1°F-12.7°C 5.3°F-14.8°C 84% 6.0 mph NW9.7 kmh NW -- 30.21 in1023.0 mb 0.00 in0.0 mm 0.00 in0.0 mm 0.00 in0.0 mm
11:10 AM 9.1°F-12.7°C 5.3°F-14.8°C 84% 8.0 mph NW12.9 kmh NW 14.0 mph22.5 kmh 30.22 in1023.4 mb 0.00 in0.0 mm 0.00 in0.0 mm 0.00 in0.0 mm
11:15 AM 9.1°F-12.7°C 5.5°F-14.7°C 85% 10.0 mph NW16.1 kmh NW 14.0 mph22.5 kmh 30.23 in1023.7 mb 0.00 in0.0 mm 0.00 in0.0 mm 0.00 in0.0 mm
11:20 AM 9.0°F-12.8°C 5.4°F-14.8°C 85% 7.0 mph NNW11.3 kmh NNW -- 30.22 in1023.4 mb 0.00 in0.0 mm 0.00 in0.0 mm 0.00 in0.0 mm
11:25 AM 8.9°F-12.8°C 5.3°F-14.8°C 85% 13.0 mph NNW20.9 kmh NNW -- 30.23 in1023.7 mb 0.00 in0.0 mm 0.00 in0.0 mm 0.00 in0.0 mm
11:30 AM 9.0°F-12.8°C 5.4°F-14.8°C 85% 9.0 mph NW14.5 kmh NW -- 30.22 in1023.4 mb 0.00 in0.0 mm 0.00 in0.0 mm 0.00 in0.0 mm
11:35 AM 9.1°F-12.7°C 5.5°F-14.7°C 85% 7.0 mph NNW11.3 kmh NNW -- 30.23 in1023.7 mb 0.00 in0.0 mm 0.00 in0.0 mm 0.00 in0.0 mm
11:40 AM 9.3°F-12.6°C 5.7°F-14.6°C 85% 2.0 mph NW3.2 kmh NW -- 30.23 in1023.7 mb 0.00 in0.0 mm 0.00 in0.0 mm 0.00 in0.0 mm
11:45 AM 9.4°F-12.6°C 5.8°F-14.6°C 85% 10.0 mph NW16.1 kmh NW -- 30.23 in1023.7 mb 0.00 in0.0 mm 0.00 in0.0 mm 0.00 in0.0 mm
11:50 AM 9.4°F-12.6°C 5.8°F-14.6°C 85% 9.0 mph NW14.5 kmh NW -- 30.23 in1023.7 mb 0.00 in0.0 mm 0.00 in0.0 mm 0.00 in0.0 mm
11:55 AM 9.2°F-12.7°C 5.6°F-14.7°C 85% 9.0 mph NNW14.5 kmh NNW -- 30.23 in1023.7 mb 0.00 in0.0 mm 0.00 in0.0 mm 0.00 in0.0 mm
12:00 PM 9.1°F-12.7°C 5.3°F-14.8°C 84% 6.0 mph NW9.7 kmh NW 17.0 mph27.4 kmh 30.23 in1023.7 mb 0.00 in0.0 mm 0.00 in0.0 mm 0.00 in0.0 mm
12:05 PM 9.1°F-12.7°C 5.3°F-14.8°C 84% 10.0 mph NW16.1 kmh NW 17.0 mph27.4 kmh 30.23 in1023.7 mb 0.00 in0.0 mm 0.00 in0.0 mm 0.00 in0.0 mm
12:10 PM 9.2°F-12.7°C 5.4°F-14.8°C 84% 10.0 mph NW16.1 kmh NW -- 30.23 in1023.7 mb 0.00 in0.0 mm 0.00 in0.0 mm 0.00 in0.0 mm
12:15 PM 9.3°F-12.6°C 5.5°F-14.7°C 84% 6.0 mph NNW9.7 kmh NNW -- 30.23 in1023.7 mb 0.00 in0.0 mm 0.00 in0.0 mm 0.00 in0.0 mm
12:20 PM 9.3°F-12.6°C 5.5°F-14.7°C 84% 6.0 mph NW9.7 kmh NW -- 30.23 in1023.7 mb 0.00 in0.0 mm 0.00 in0.0 mm 0.00 in0.0 mm
12:25 PM 9.2°F-12.7°C 5.4°F-14.8°C 84% 5.0 mph N8.0 kmh N -- 30.23 in1023.7 mb 0.00 in0.0 mm 0.00 in0.0 mm 0.00 in0.0 mm
12:30 PM 9.3°F-12.6°C 5.7°F-14.6°C 85% 6.0 mph NNW9.7 kmh NNW -- 30.23 in1023.7 mb 0.00 in0.0 mm 0.00 in0.0 mm 0.00 in0.0 mm
12:35 PM 9.3°F-12.6°C 5.7°F-14.6°C 85% 4.0 mph NNW6.4 kmh NNW -- 30.23 in1023.7 mb 0.00 in0.0 mm 0.00 in0.0 mm 0.00 in0.0 mm
12:40 PM 9.3°F-12.6°C 5.5°F-14.7°C 84% 7.0 mph NW11.3 kmh NW -- 30.23 in1023.7 mb 0.00 in0.0 mm 0.00 in0.0 mm 0.00 in0.0 mm
12:45 PM 9.2°F-12.7°C 5.1°F-14.9°C 83% 5.0 mph NW8.0 kmh NW -- 30.23 in1023.7 mb 0.00 in0.0 mm 0.00 in0.0 mm 0.00 in0.0 mm
12:50 PM 9.2°F-12.7°C 5.1°F-14.9°C 83% 4.0 mph NNW6.4 kmh NNW 15.0 mph24.1 kmh 30.23 in1023.7 mb 0.00 in0.0 mm 0.00 in0.0 mm 0.00 in0.0 mm
12:55 PM 9.2°F-12.7°C 5.1°F-14.9°C 83% 6.0 mph N9.7 kmh N 15.0 mph24.1 kmh 30.23 in1023.7 mb 0.00 in0.0 mm 0.00 in0.0 mm 0.00 in0.0 mm
01:00 PM 9.1°F-12.7°C 4.7°F-15.2°C 82% 5.0 mph NW8.0 kmh NW -- 30.23 in1023.7 mb 0.00 in0.0 mm 0.00 in0.0 mm 0.00 in0.0 mm
01:05 PM 9.3°F-12.6°C 4.9°F-15.1°C 82% 3.0 mph NW4.8 kmh NW -- 30.23 in1023.7 mb 0.00 in0.0 mm 0.00 in0.0 mm 0.00 in0.0 mm
01:10 PM 9.4°F-12.6°C 4.8°F-15.1°C 81% 4.0 mph NW6.4 kmh NW -- 30.22 in1023.4 mb 0.00 in0.0 mm 0.00 in0.0 mm 0.00 in0.0 mm
01:15 PM 9.6°F-12.4°C 5.0°F-15.0°C 81% 7.0 mph N11.3 kmh N -- 30.22 in1023.4 mb 0.00 in0.0 mm 0.00 in0.0 mm 0.00 in0.0 mm
01:20 PM 9.9°F-12.3°C 5.3°F-14.8°C 81% 7.0 mph W11.3 kmh W -- 30.22 in1023.4 mb 0.00 in0.0 mm 0.00 in0.0 mm 0.00 in0.0 mm
01:25 PM 10.3°F-12.1°C 5.4°F-14.8°C 80% 11.0 mph NW17.7 kmh NW -- 30.22 in1023.4 mb 0.00 in0.0 mm 0.00 in0.0 mm 0.00 in0.0 mm
01:30 PM 10.5°F-11.9°C 5.6°F-14.7°C 80% 8.0 mph NW12.9 kmh NW -- 30.22 in1023.4 mb 0.00 in0.0 mm 0.00 in0.0 mm 0.00 in0.0 mm
01:35 PM 10.6°F-11.9°C 5.7°F-14.6°C 80% 11.0 mph NW17.7 kmh NW -- 30.22 in1023.4 mb 0.00 in0.0 mm 0.00 in0.0 mm 0.00 in0.0 mm
01:40 PM 10.6°F-11.9°C 5.4°F-14.8°C 79% 7.0 mph W11.3 kmh W 14.0 mph22.5 kmh 30.22 in1023.4 mb 0.00 in0.0 mm 0.00 in0.0 mm 0.00 in0.0 mm
01:45 PM 10.6°F-11.9°C 5.4°F-14.8°C 79% 7.0 mph NW11.3 kmh NW 14.0 mph22.5 kmh 30.22 in1023.4 mb 0.00 in0.0 mm 0.00 in0.0 mm 0.00 in0.0 mm
01:50 PM 10.5°F-11.9°C 5.3°F-14.8°C 79% 3.0 mph NW4.8 kmh NW -- 30.23 in1023.7 mb 0.00 in0.0 mm 0.00 in0.0 mm 0.00 in0.0 mm
01:55 PM 10.6°F-11.9°C 5.4°F-14.8°C 79% 8.0 mph N12.9 kmh N -- 30.23 in1023.7 mb 0.00 in0.0 mm 0.00 in0.0 mm 0.00 in0.0 mm
02:00 PM 10.5°F-11.9°C 5.0°F-15.0°C 78% 11.0 mph NW17.7 kmh NW -- 30.23 in1023.7 mb 0.00 in0.0 mm 0.00 in0.0 mm 0.00 in0.0 mm
02:05 PM 10.3°F-12.1°C 4.5°F-15.3°C 77% 11.0 mph NW17.7 kmh NW -- 30.23 in1023.7 mb 0.00 in0.0 mm 0.00 in0.0 mm 0.00 in0.0 mm
02:10 PM 10.7°F-11.8°C 5.2°F-14.9°C 78% 7.0 mph NW11.3 kmh NW -- 30.22 in1023.4 mb 0.00 in0.0 mm 0.00 in0.0 mm 0.00 in0.0 mm
02:15 PM 10.9°F-11.7°C 5.1°F-14.9°C 77% 6.0 mph N9.7 kmh N -- 30.22 in1023.4 mb 0.00 in0.0 mm 0.00 in0.0 mm 0.00 in0.0 mm
02:20 PM 11.0°F-11.7°C 4.9°F-15.1°C 76% 6.0 mph WNW9.7 kmh WNW -- 30.22 in1023.4 mb 0.00 in0.0 mm 0.00 in0.0 mm 0.00 in0.0 mm
02:25 PM 11.2°F-11.6°C 5.1°F-14.9°C 76% 8.0 mph NW12.9 kmh NW -- 30.22 in1023.4 mb 0.00 in0.0 mm 0.00 in0.0 mm 0.00 in0.0 mm
02:30 PM 11.4°F-11.4°C 5.0°F-15.0°C 75% 9.0 mph NW14.5 kmh NW 16.0 mph25.7 kmh 30.22 in1023.4 mb 0.00 in0.0 mm 0.00 in0.0 mm 0.00 in0.0 mm
02:35 PM 11.4°F-11.4°C 5.0°F-15.0°C 75% 9.0 mph WSW14.5 kmh WSW 16.0 mph25.7 kmh 30.22 in1023.4 mb 0.00 in0.0 mm 0.00 in0.0 mm 0.00 in0.0 mm
02:40 PM 11.5°F-11.4°C 4.8°F-15.1°C 74% 11.0 mph WNW17.7 kmh WNW -- 30.22 in1023.4 mb 0.00 in0.0 mm 0.00 in0.0 mm 0.00 in0.0 mm
02:45 PM 11.8°F-11.2°C 5.1°F-14.9°C 74% 11.0 mph NW17.7 kmh NW -- 30.22 in1023.4 mb 0.00 in0.0 mm 0.00 in0.0 mm 0.00 in0.0 mm
02:50 PM 11.6°F-11.3°C 4.6°F-15.2°C 73% 9.0 mph W14.5 kmh W -- 30.23 in1023.7 mb 0.00 in0.0 mm 0.00 in0.0 mm 0.00 in0.0 mm
02:55 PM 11.4°F-11.4°C 3.9°F-15.6°C 71% 11.0 mph NW17.7 kmh NW -- 30.23 in1023.7 mb 0.00 in0.0 mm 0.00 in0.0 mm 0.00 in0.0 mm
03:00 PM 11.5°F-11.4°C 4.3°F-15.4°C 72% 6.0 mph W9.7 kmh W -- 30.23 in1023.7 mb 0.00 in0.0 mm 0.00 in0.0 mm 0.00 in0.0 mm
03:05 PM 11.7°F-11.3°C 4.1°F-15.5°C 71% 4.0 mph WNW6.4 kmh WNW -- 30.23 in1023.7 mb 0.00 in0.0 mm 0.00 in0.0 mm 0.00 in0.0 mm
03:10 PM 11.8°F-11.2°C 3.9°F-15.6°C 70% 5.0 mph NNW8.0 kmh NNW -- 30.23 in1023.7 mb 0.00 in0.0 mm 0.00 in0.0 mm 0.00 in0.0 mm
03:15 PM 11.7°F-11.3°C 3.5°F-15.8°C 69% 9.0 mph NW14.5 kmh NW -- 30.23 in1023.7 mb 0.00 in0.0 mm 0.00 in0.0 mm 0.00 in0.0 mm
03:20 PM 11.8°F-11.2°C 3.3°F-15.9°C 68% 9.0 mph NW14.5 kmh NW 18.0 mph29.0 kmh 30.23 in1023.7 mb 0.00 in0.0 mm 0.00 in0.0 mm 0.00 in0.0 mm
03:25 PM 11.9°F-11.2°C 3.4°F-15.9°C 68% 10.0 mph NW16.1 kmh NW 18.0 mph29.0 kmh 30.23 in1023.7 mb 0.00 in0.0 mm 0.00 in0.0 mm 0.00 in0.0 mm
03:30 PM 11.8°F-11.2°C 3.3°F-15.9°C 68% 8.0 mph NNW12.9 kmh NNW -- 30.24 in1024.0 mb 0.00 in0.0 mm 0.00 in0.0 mm 0.00 in0.0 mm
03:35 PM 12.0°F-11.1°C 3.8°F-15.7°C 69% 7.0 mph NW11.3 kmh NW -- 30.23 in1023.7 mb 0.00 in0.0 mm 0.00 in0.0 mm 0.00 in0.0 mm
03:40 PM 11.9°F-11.2°C 3.4°F-15.9°C 68% 12.0 mph NW19.3 kmh NW -- 30.23 in1023.7 mb 0.00 in0.0 mm 0.00 in0.0 mm 0.00 in0.0 mm
03:45 PM 11.7°F-11.3°C 2.9°F-16.2°C 67% 10.0 mph NW16.1 kmh NW -- 30.24 in1024.0 mb 0.00 in0.0 mm 0.00 in0.0 mm 0.00 in0.0 mm
03:50 PM 11.6°F-11.3°C 2.8°F-16.2°C 67% 8.0 mph W12.9 kmh W -- 30.24 in1024.0 mb 0.00 in0.0 mm 0.00 in0.0 mm 0.00 in0.0 mm
03:55 PM 11.6°F-11.3°C 2.8°F-16.2°C 67% 5.0 mph NW8.0 kmh NW -- 30.24 in1024.0 mb 0.00 in0.0 mm 0.00 in0.0 mm 0.00 in0.0 mm
04:00 PM 11.7°F-11.3°C 2.6°F-16.3°C 66% 6.0 mph NW9.7 kmh NW -- 30.24 in1024.0 mb 0.00 in0.0 mm 0.00 in0.0 mm 0.00 in0.0 mm
04:05 PM 11.9°F-11.2°C 2.8°F-16.2°C 66% 9.0 mph NW14.5 kmh NW -- 30.24 in1024.0 mb 0.00 in0.0 mm 0.00 in0.0 mm 0.00 in0.0 mm
04:10 PM 11.8°F-11.2°C 2.3°F-16.5°C 65% 8.0 mph NW12.9 kmh NW 12.0 mph19.3 kmh 30.24 in1024.0 mb 0.00 in0.0 mm 0.00 in0.0 mm 0.00 in0.0 mm
04:15 PM 11.9°F-11.2°C 2.8°F-16.2°C 66% 7.0 mph NNW11.3 kmh NNW 12.0 mph19.3 kmh 30.24 in1024.0 mb 0.00 in0.0 mm 0.00 in0.0 mm 0.00 in0.0 mm
04:20 PM 11.9°F-11.2°C 3.1°F-16.1°C 67% 8.0 mph NW12.9 kmh NW -- 30.25 in1024.4 mb 0.00 in0.0 mm 0.00 in0.0 mm 0.00 in0.0 mm
04:25 PM 11.6°F-11.3°C 2.5°F-16.4°C 66% 9.0 mph W14.5 kmh W -- 30.25 in1024.4 mb 0.00 in0.0 mm 0.00 in0.0 mm 0.00 in0.0 mm
04:30 PM 11.4°F-11.4°C 2.3°F-16.5°C 66% 5.0 mph WNW8.0 kmh WNW -- 30.25 in1024.4 mb 0.00 in0.0 mm 0.00 in0.0 mm 0.00 in0.0 mm
04:35 PM 11.3°F-11.5°C 2.2°F-16.6°C 66% 6.0 mph NW9.7 kmh NW -- 30.25 in1024.4 mb 0.00 in0.0 mm 0.00 in0.0 mm 0.00 in0.0 mm
04:40 PM 11.2°F-11.6°C 1.8°F-16.8°C 65% 12.0 mph WNW19.3 kmh WNW -- 30.25 in1024.4 mb 0.00 in0.0 mm 0.00 in0.0 mm 0.00 in0.0 mm
04:45 PM 11.0°F-11.7°C 0.9°F-17.3°C 63% 8.0 mph WNW12.9 kmh WNW -- 30.25 in1024.4 mb 0.00 in0.0 mm 0.00 in0.0 mm 0.00 in0.0 mm
04:50 PM 11.0°F-11.7°C 0.9°F-17.3°C 63% 13.0 mph W20.9 kmh W -- 30.26 in1024.7 mb 0.00 in0.0 mm 0.00 in0.0 mm 0.00 in0.0 mm
04:55 PM 10.9°F-11.7°C 0.1°F-17.7°C 61% 6.0 mph WNW9.7 kmh WNW -- 30.26 in1024.7 mb 0.00 in0.0 mm 0.00 in0.0 mm 0.00 in0.0 mm
05:00 PM 10.8°F-11.8°C 0.4°F-17.6°C 62% 9.0 mph WNW14.5 kmh WNW 16.0 mph25.7 kmh 30.26 in1024.7 mb 0.00 in0.0 mm 0.00 in0.0 mm 0.00 in0.0 mm
05:05 PM 10.8°F-11.8°C 0.4°F-17.6°C 62% 5.0 mph NW8.0 kmh NW 16.0 mph25.7 kmh 30.26 in1024.7 mb 0.00 in0.0 mm 0.00 in0.0 mm 0.00 in0.0 mm
05:10 PM 10.8°F-11.8°C 0.7°F-17.4°C 63% 7.0 mph NW11.3 kmh NW -- 30.26 in1024.7 mb 0.00 in0.0 mm 0.00 in0.0 mm 0.00 in0.0 mm
05:15 PM 10.7°F-11.8°C 0.6°F-17.4°C 63% 8.0 mph NW12.9 kmh NW -- 30.26 in1024.7 mb 0.00 in0.0 mm 0.00 in0.0 mm 0.00 in0.0 mm
05:20 PM 10.6°F-11.9°C 0.5°F-17.5°C 63% 10.0 mph NW16.1 kmh NW -- 30.26 in1024.7 mb 0.00 in0.0 mm 0.00 in0.0 mm 0.00 in0.0 mm
05:25 PM 10.4°F-12.0°C 0.3°F-17.6°C 63% 10.0 mph W16.1 kmh W -- 30.27 in1025.1 mb 0.00 in0.0 mm 0.00 in0.0 mm 0.00 in0.0 mm
05:30 PM 10.1°F-12.2°C 0.0°F-17.8°C 63% 7.0 mph WNW11.3 kmh WNW -- 30.27 in1025.1 mb 0.00 in0.0 mm 0.00 in0.0 mm 0.00 in0.0 mm
05:35 PM 9.8°F-12.3°C -0.2°F-17.9°C 63% 11.0 mph NW17.7 kmh NW -- 30.27 in1025.1 mb 0.00 in0.0 mm 0.00 in0.0 mm 0.00 in0.0 mm
05:40 PM 9.6°F-12.4°C -0.4°F-18.0°C 63% 11.0 mph W17.7 kmh W -- 30.27 in1025.1 mb 0.00 in0.0 mm 0.00 in0.0 mm 0.00 in0.0 mm
05:45 PM 9.6°F-12.4°C -0.8°F-18.2°C 62% 8.0 mph WNW12.9 kmh WNW -- 30.28 in1025.4 mb 0.00 in0.0 mm 0.00 in0.0 mm 0.00 in0.0 mm
05:50 PM 9.4°F-12.6°C -1.0°F-18.3°C 62% 7.0 mph W11.3 kmh W 15.0 mph24.1 kmh 30.28 in1025.4 mb 0.00 in0.0 mm 0.00 in0.0 mm 0.00 in0.0 mm
05:55 PM 9.2°F-12.7°C -0.8°F-18.2°C 63% 4.0 mph WNW6.4 kmh WNW 15.0 mph24.1 kmh 30.28 in1025.4 mb 0.00 in0.0 mm 0.00 in0.0 mm 0.00 in0.0 mm
06:00 PM 9.0°F-12.8°C -1.3°F-18.5°C 62% 5.0 mph NW8.0 kmh NW -- 30.28 in1025.4 mb 0.00 in0.0 mm 0.00 in0.0 mm 0.00 in0.0 mm
06:05 PM 8.7°F-12.9°C -1.6°F-18.7°C 62% 6.0 mph WNW9.7 kmh WNW -- 30.29 in1025.7 mb 0.00 in0.0 mm 0.00 in0.0 mm 0.00 in0.0 mm
06:10 PM 8.5°F-13.1°C -1.8°F-18.8°C 62% 5.0 mph WNW8.0 kmh WNW -- 30.29 in1025.7 mb 0.00 in0.0 mm 0.00 in0.0 mm 0.00 in0.0 mm
06:15 PM 8.3°F-13.2°C -2.0°F-18.9°C 62% 5.0 mph NW8.0 kmh NW -- 30.29 in1025.7 mb 0.00 in0.0 mm 0.00 in0.0 mm 0.00 in0.0 mm
06:20 PM 8.1°F-13.3°C -1.9°F-18.8°C 63% 6.0 mph NW9.7 kmh NW -- 30.30 in1026.1 mb 0.00 in0.0 mm 0.00 in0.0 mm 0.00 in0.0 mm
06:25 PM 7.8°F-13.4°C -2.1°F-18.9°C 63% 6.0 mph NW9.7 kmh NW -- 30.30 in1026.1 mb 0.00 in0.0 mm 0.00 in0.0 mm 0.00 in0.0 mm
06:30 PM 7.6°F-13.6°C -2.3°F-19.1°C 63% 3.0 mph NW4.8 kmh NW -- 30.30 in1026.1 mb 0.00 in0.0 mm 0.00 in0.0 mm 0.00 in0.0 mm
06:35 PM 7.3°F-13.7°C -2.6°F-19.2°C 63% 3.0 mph WNW4.8 kmh WNW -- 30.30 in1026.1 mb 0.00 in0.0 mm 0.00 in0.0 mm 0.00 in0.0 mm
06:40 PM 6.8°F-14.0°C -2.8°F-19.3°C 64% 3.0 mph WSW4.8 kmh WSW 6.0 mph9.7 kmh 30.30 in1026.1 mb 0.00 in0.0 mm 0.00 in0.0 mm 0.00 in0.0 mm
06:45 PM 6.5°F-14.2°C -2.7°F-19.3°C 65% 3.0 mph W4.8 kmh W 6.0 mph9.7 kmh 30.30 in1026.1 mb 0.00 in0.0 mm 0.00 in0.0 mm 0.00 in0.0 mm
06:50 PM 6.7°F-14.1°C -2.2°F-19.0°C 66% 4.0 mph W6.4 kmh W -- 30.31 in1026.4 mb 0.00 in0.0 mm 0.00 in0.0 mm 0.00 in0.0 mm
06:55 PM 6.7°F-14.1°C -1.9°F-18.8°C 67% 5.0 mph W8.0 kmh W -- 30.31 in1026.4 mb 0.00 in0.0 mm 0.00 in0.0 mm 0.00 in0.0 mm
07:00 PM 6.4°F-14.2°C -1.9°F-18.8°C 68% 4.0 mph WSW6.4 kmh WSW -- 30.31 in1026.4 mb 0.00 in0.0 mm 0.00 in0.0 mm 0.00 in0.0 mm
07:05 PM 5.8°F-14.6°C -2.1°F-18.9°C 69% 4.0 mph W6.4 kmh W -- 30.32 in1026.8 mb 0.00 in0.0 mm 0.00 in0.0 mm 0.00 in0.0 mm
07:10 PM 5.4°F-14.8°C -2.5°F-19.2°C 69% 4.0 mph WSW6.4 kmh WSW -- 30.32 in1026.8 mb 0.00 in0.0 mm 0.00 in0.0 mm 0.00 in0.0 mm
07:15 PM 5.3°F-14.8°C -2.3°F-19.1°C 70% 2.0 mph W3.2 kmh W -- 30.32 in1026.8 mb 0.00 in0.0 mm 0.00 in0.0 mm 0.00 in0.0 mm
07:20 PM 5.4°F-14.8°C -2.5°F-19.2°C 69% 5.0 mph W8.0 kmh W -- 30.32 in1026.8 mb 0.00 in0.0 mm 0.00 in0.0 mm 0.00 in0.0 mm
07:25 PM 5.4°F-14.8°C -2.8°F-19.3°C 68% 6.0 mph W9.7 kmh W -- 30.33 in1027.1 mb 0.00 in0.0 mm 0.00 in0.0 mm 0.00 in0.0 mm
07:30 PM 5.4°F-14.8°C -2.8°F-19.3°C 68% 5.0 mph WSW8.0 kmh WSW 11.0 mph17.7 kmh 30.33 in1027.1 mb 0.00 in0.0 mm 0.00 in0.0 mm 0.00 in0.0 mm
07:35 PM 5.1°F-14.9°C -3.4°F-19.7°C 67% 4.0 mph W6.4 kmh W 11.0 mph17.7 kmh 30.32 in1026.8 mb 0.00 in0.0 mm 0.00 in0.0 mm 0.00 in0.0 mm
07:40 PM 4.8°F-15.1°C -3.7°F-19.8°C 67% 4.0 mph W6.4 kmh W -- 30.33 in1027.1 mb 0.00 in0.0 mm 0.00 in0.0 mm 0.00 in0.0 mm
07:45 PM 4.6°F-15.2°C -3.9°F-19.9°C 67% 3.0 mph WNW4.8 kmh WNW -- 30.33 in1027.1 mb 0.00 in0.0 mm 0.00 in0.0 mm 0.00 in0.0 mm
07:50 PM 4.5°F-15.3°C -4.0°F-20.0°C 67% 5.0 mph W8.0 kmh W -- 30.33 in1027.1 mb 0.00 in0.0 mm 0.00 in0.0 mm 0.00 in0.0 mm
07:55 PM 4.4°F-15.3°C -4.4°F-20.2°C 66% 8.0 mph NW12.9 kmh NW -- 30.33 in1027.1 mb 0.00 in0.0 mm 0.00 in0.0 mm 0.00 in0.0 mm
08:00 PM 4.4°F-15.3°C -4.7°F-20.4°C 65% 4.0 mph W6.4 kmh W -- 30.33 in1027.1 mb 0.00 in0.0 mm 0.00 in0.0 mm 0.00 in0.0 mm
08:05 PM 4.4°F-15.3°C -4.7°F-20.4°C 65% 5.0 mph W8.0 kmh W -- 30.34 in1027.4 mb 0.00 in0.0 mm 0.00 in0.0 mm 0.00 in0.0 mm
08:10 PM 4.3°F-15.4°C -4.8°F-20.4°C 65% 4.0 mph WNW6.4 kmh WNW -- 30.34 in1027.4 mb 0.00 in0.0 mm 0.00 in0.0 mm 0.00 in0.0 mm
08:15 PM 4.1°F-15.5°C -5.0°F-20.6°C 65% 5.0 mph W8.0 kmh W -- 30.34 in1027.4 mb 0.00 in0.0 mm 0.00 in0.0 mm 0.00 in0.0 mm
08:21 PM 3.9°F-15.6°C -5.2°F-20.7°C 65% 6.0 mph W9.7 kmh W 10.0 mph16.1 kmh 30.34 in1027.4 mb 0.00 in0.0 mm 0.00 in0.0 mm 0.00 in0.0 mm
08:25 PM 3.7°F-15.7°C -5.4°F-20.8°C 65% 7.0 mph WSW11.3 kmh WSW 10.0 mph16.1 kmh 30.34 in1027.4 mb 0.00 in0.0 mm 0.00 in0.0 mm 0.00 in0.0 mm
08:30 PM 3.7°F-15.7°C -5.7°F-20.9°C 64% 7.0 mph WNW11.3 kmh WNW -- 30.34 in1027.4 mb 0.00 in0.0 mm 0.00 in0.0 mm 0.00 in0.0 mm
08:35 PM 3.5°F-15.8°C -5.9°F-21.1°C 64% 5.0 mph W8.0 kmh W -- 30.34 in1027.4 mb 0.00 in0.0 mm 0.00 in0.0 mm 0.00 in0.0 mm
08:40 PM 3.2°F-16.0°C -6.2°F-21.2°C 64% 4.0 mph WNW6.4 kmh WNW -- 30.34 in1027.4 mb 0.00 in0.0 mm 0.00 in0.0 mm 0.00 in0.0 mm
08:45 PM 2.9°F-16.2°C -6.5°F-21.4°C 64% 2.0 mph W3.2 kmh W -- 30.34 in1027.4 mb 0.00 in0.0 mm 0.00 in0.0 mm 0.00 in0.0 mm
08:50 PM 2.8°F-16.2°C -6.3°F-21.3°C 65% 7.0 mph W11.3 kmh W -- 30.34 in1027.4 mb 0.00 in0.0 mm 0.00 in0.0 mm 0.00 in0.0 mm
08:55 PM 2.8°F-16.2°C -6.6°F-21.4°C 64% 5.0 mph W8.0 kmh W -- 30.34 in1027.4 mb 0.00 in0.0 mm 0.00 in0.0 mm 0.00 in0.0 mm
09:00 PM 2.8°F-16.2°C -6.6°F-21.4°C 64% 7.0 mph W11.3 kmh W -- 30.34 in1027.4 mb 0.00 in0.0 mm 0.00 in0.0 mm 0.00 in0.0 mm
09:05 PM 2.6°F-16.3°C -7.1°F-21.7°C 63% 7.0 mph W11.3 kmh W -- 30.35 in1027.8 mb 0.00 in0.0 mm 0.00 in0.0 mm 0.00 in0.0 mm
09:10 PM 2.4°F-16.4°C -7.0°F-21.7°C 64% 5.0 mph WNW8.0 kmh WNW 12.0 mph19.3 kmh 30.34 in1027.4 mb 0.00 in0.0 mm 0.00 in0.0 mm 0.00 in0.0 mm
09:15 PM 2.3°F-16.5°C -7.4°F-21.9°C 63% 5.0 mph W8.0 kmh W 12.0 mph19.3 kmh 30.34 in1027.4 mb 0.00 in0.0 mm 0.00 in0.0 mm 0.00 in0.0 mm
09:20 PM 2.1°F-16.6°C -7.6°F-22.0°C 63% 5.0 mph W8.0 kmh W -- 30.34 in1027.4 mb 0.00 in0.0 mm 0.00 in0.0 mm 0.00 in0.0 mm
09:25 PM 1.9°F-16.7°C -7.8°F-22.1°C 63% 6.0 mph W9.7 kmh W -- 30.34 in1027.4 mb 0.00 in0.0 mm 0.00 in0.0 mm 0.00 in0.0 mm
09:30 PM 1.5°F-16.9°C -8.1°F-22.3°C 63% 6.0 mph WNW9.7 kmh WNW -- 30.34 in1027.4 mb 0.00 in0.0 mm 0.00 in0.0 mm 0.00 in0.0 mm
09:35 PM 1.3°F-17.1°C -8.0°F-22.2°C 64% 4.0 mph W6.4 kmh W -- 30.34 in1027.4 mb 0.00 in0.0 mm 0.00 in0.0 mm 0.00 in0.0 mm
09:40 PM 1.1°F-17.2°C -8.2°F-22.3°C 64% 4.0 mph W6.4 kmh W -- 30.34 in1027.4 mb 0.00 in0.0 mm 0.00 in0.0 mm 0.00 in0.0 mm
09:45 PM 0.8°F-17.3°C -8.5°F-22.5°C 64% 3.0 mph W4.8 kmh W -- 30.35 in1027.8 mb 0.00 in0.0 mm 0.00 in0.0 mm 0.00 in0.0 mm
09:50 PM 0.4°F-17.6°C -8.5°F-22.5°C 65% 2.0 mph W3.2 kmh W -- 30.35 in1027.8 mb 0.00 in0.0 mm 0.00 in0.0 mm 0.00 in0.0 mm
09:55 PM 0.0°F-17.8°C -8.9°F-22.7°C 65% 3.0 mph W4.8 kmh W -- 30.35 in1027.8 mb 0.00 in0.0 mm 0.00 in0.0 mm 0.00 in0.0 mm
10:00 PM -0.3°F-17.9°C -8.9°F-22.7°C 66% 4.0 mph W6.4 kmh W 6.0 mph9.7 kmh 30.35 in1027.8 mb 0.00 in0.0 mm 0.00 in0.0 mm 0.00 in0.0 mm
10:05 PM -0.3°F-17.9°C -8.6°F-22.6°C 67% 3.0 mph W4.8 kmh W 6.0 mph9.7 kmh 30.35 in1027.8 mb 0.00 in0.0 mm 0.00 in0.0 mm 0.00 in0.0 mm
10:10 PM -0.3°F-17.9°C -8.6°F-22.6°C 67% 2.0 mph WSW3.2 kmh WSW -- 30.35 in1027.8 mb 0.00 in0.0 mm 0.00 in0.0 mm 0.00 in0.0 mm
10:15 PM -0.5°F-18.1°C -8.8°F-22.7°C 67% 4.0 mph WSW6.4 kmh WSW -- 30.35 in1027.8 mb 0.00 in0.0 mm 0.00 in0.0 mm 0.00 in0.0 mm
10:20 PM -0.8°F-18.2°C -8.8°F-22.7°C 68% 2.0 mph WSW3.2 kmh WSW -- 30.35 in1027.8 mb 0.00 in0.0 mm 0.00 in0.0 mm 0.00 in0.0 mm
10:25 PM -1.1°F-18.4°C -9.1°F-22.8°C 68% 2.0 mph WSW3.2 kmh WSW -- 30.35 in1027.8 mb 0.00 in0.0 mm 0.00 in0.0 mm 0.00 in0.0 mm
10:30 PM -1.4°F-18.6°C -9.4°F-23.0°C 68% 2.0 mph WSW3.2 kmh WSW -- 30.35 in1027.8 mb 0.00 in0.0 mm 0.00 in0.0 mm 0.00 in0.0 mm
10:35 PM -1.6°F-18.7°C -9.5°F-23.1°C 68% Calm Calm -- 30.35 in1027.8 mb 0.00 in0.0 mm 0.00 in0.0 mm 0.00 in0.0 mm
10:40 PM -1.8°F-18.8°C -9.4°F-23.0°C 69% Calm Calm -- 30.35 in1027.8 mb 0.00 in0.0 mm 0.00 in0.0 mm 0.00 in0.0 mm
10:45 PM -2.2°F-19.0°C -10.1°F-23.4°C 68% 1.0 mph WSW1.6 kmh WSW -- 30.35 in1027.8 mb 0.00 in0.0 mm 0.00 in0.0 mm 0.00 in0.0 mm
10:50 PM -2.7°F-19.3°C -10.6°F-23.7°C 68% Calm Calm 2.0 mph3.2 kmh 30.35 in1027.8 mb 0.00 in0.0 mm 0.00 in0.0 mm 0.00 in0.0 mm
10:55 PM -3.0°F-19.4°C -10.6°F-23.7°C 69% 2.0 mph WSW3.2 kmh WSW 2.0 mph3.2 kmh 30.35 in1027.8 mb 0.00 in0.0 mm 0.00 in0.0 mm 0.00 in0.0 mm
11:00 PM -3.2°F-19.6°C -10.5°F-23.6°C 70% 1.0 mph WSW1.6 kmh WSW -- 30.35 in1027.8 mb 0.00 in0.0 mm 0.00 in0.0 mm 0.00 in0.0 mm
11:05 PM -3.2°F-19.6°C -10.2°F-23.4°C 71% 1.0 mph WSW1.6 kmh WSW -- 30.35 in1027.8 mb 0.00 in0.0 mm 0.00 in0.0 mm 0.00 in0.0 mm
11:10 PM -3.4°F-19.7°C -10.4°F-23.6°C 71% 2.0 mph WSW3.2 kmh WSW -- 30.35 in1027.8 mb 0.00 in0.0 mm 0.00 in0.0 mm 0.00 in0.0 mm
11:15 PM -3.6°F-19.8°C -10.3°F-23.5°C 72% 2.0 mph WSW3.2 kmh WSW -- 30.35 in1027.8 mb 0.00 in0.0 mm 0.00 in0.0 mm 0.00 in0.0 mm
11:20 PM -3.7°F-19.8°C -10.4°F-23.6°C 72% 2.0 mph WSW3.2 kmh WSW -- 30.35 in1027.8 mb 0.00 in0.0 mm 0.00 in0.0 mm 0.00 in0.0 mm
11:25 PM -4.0°F-20.0°C -10.7°F-23.7°C 72% 2.0 mph WSW3.2 kmh WSW -- 30.35 in1027.8 mb 0.00 in0.0 mm 0.00 in0.0 mm 0.00 in0.0 mm
11:30 PM -4.2°F-20.1°C -10.9°F-23.8°C 72% 3.0 mph WSW4.8 kmh WSW -- 30.35 in1027.8 mb 0.00 in0.0 mm 0.00 in0.0 mm 0.00 in0.0 mm
11:35 PM -4.7°F-20.4°C -11.4°F-24.1°C 72% 5.0 mph WSW8.0 kmh WSW -- 30.35 in1027.8 mb 0.00 in0.0 mm 0.00 in0.0 mm 0.00 in0.0 mm
11:40 PM -4.8°F-20.4°C -11.2°F-24.0°C 73% 3.0 mph WSW4.8 kmh WSW 6.0 mph9.7 kmh 30.34 in1027.4 mb 0.00 in0.0 mm 0.00 in0.0 mm 0.00 in0.0 mm
11:45 PM -4.4°F-20.2°C -10.5°F-23.6°C 74% 5.0 mph W8.0 kmh W 6.0 mph9.7 kmh 30.34 in1027.4 mb 0.00 in0.0 mm 0.00 in0.0 mm 0.00 in0.0 mm
11:50 PM -4.2°F-20.1°C -10.4°F-23.6°C 74% 3.0 mph WSW4.8 kmh WSW -- 30.34 in1027.4 mb 0.00 in0.0 mm 0.00 in0.0 mm 0.00 in0.0 mm
11:55 PM -4.3°F-20.2°C -10.7°F-23.7°C 73% 2.0 mph WSW3.2 kmh WSW -- 30.34 in1027.4 mb 0.00 in0.0 mm 0.00 in0.0 mm 0.00 in0.0 mm